Time;durP1;ratioP1;P1;durP2;ratioP2;P2;SDS_P1;SDS_P2;PMS_P1;PMS_P2;Temp;Humidity;BMP_temperature;BMP_pressure;BME280_temperature;BME280_humidity;BME280_pressure;Samples;Min_cycle;Max_cycle;Signal;HPM_P1;HPM_P2
2023/06/09 00:00:47;;;;;;;29.77;17.67;;;16.10;96.00;;;;;;5067526;28;20577;-61
2023/06/09 00:03:16;;;;;;;39.27;18.30;;;16.10;95.40;;;;;;5061873;28;20477;-61
2023/06/09 00:05:43;;;;;;;27.00;14.67;;;16.10;95.00;;;;;;5062764;28;20774;-61
2023/06/09 00:08:11;;;;;;;28.70;15.13;;;16.00;95.00;;;;;;5063770;28;20626;-61
2023/06/09 00:10:38;;;;;;;19.10;13.80;;;15.90;94.20;;;;;;5056047;28;20983;-61
2023/06/09 00:13:05;;;;;;;28.67;16.70;;;15.70;94.80;;;;;;5078073;28;20595;-60
2023/06/09 00:15:32;;;;;;;34.60;17.30;;;15.70;95.20;;;;;;5061431;28;20482;-61
2023/06/09 00:18:02;;;;;;;27.53;15.80;;;15.60;95.50;;;;;;5067159;28;20863;-61
2023/06/09 00:20:33;;;;;;;42.63;19.80;;;15.50;95.80;;;;;;5062885;28;21148;-61
2023/06/09 00:23:01;;;;;;;37.10;17.43;;;15.30;95.80;;;;;;5060983;28;20506;-61
2023/06/09 00:25:28;;;;;;;38.60;19.33;;;15.30;95.50;;;;;;5056548;28;20493;-61
2023/06/09 00:27:55;;;;;;;23.40;14.17;;;15.30;95.10;;;;;;5068324;28;20490;-60
2023/06/09 00:30:22;;;;;;;42.87;19.53;;;15.20;95.10;;;;;;5064503;28;20470;-60
2023/06/09 00:32:49;;;;;;;31.40;16.47;;;15.20;95.40;;;;;;5067261;28;20470;-61
2023/06/09 00:35:18;;;;;;;38.60;16.07;;;15.30;95.10;;;;;;5063263;28;20561;-60
2023/06/09 00:37:46;;;;;;;36.37;15.53;;;15.40;95.20;;;;;;5066799;28;20501;-61
2023/06/09 00:40:14;;;;;;;35.17;17.20;;;15.40;95.30;;;;;;5062537;28;20482;-61
2023/06/09 00:42:41;;;;;;;27.07;15.47;;;15.50;95.20;;;;;;5065930;28;20521;-61
2023/06/09 00:45:09;;;;;;;33.00;17.03;;;15.50;95.20;;;;;;5064246;28;20477;-60
2023/06/09 00:47:36;;;;;;;26.07;15.40;;;15.50;95.20;;;;;;5067149;28;20528;-61
2023/06/09 00:50:04;;;;;;;23.77;15.40;;;15.40;94.80;;;;;;5065496;28;21063;-60
2023/06/09 00:52:32;;;;;;;42.43;20.33;;;15.40;95.40;;;;;;5066881;28;20482;-60
2023/06/09 00:54:59;;;;;;;28.30;16.00;;;15.40;94.90;;;;;;5066428;28;20482;-60
2023/06/09 00:57:29;;;;;;;48.27;20.30;;;15.40;94.60;;;;;;5059658;28;20486;-61
2023/06/09 00:59:57;;;;;;;32.47;16.60;;;15.40;94.30;;;;;;5077444;28;20472;-60
2023/06/09 01:02:24;;;;;;;42.87;19.50;;;15.30;94.10;;;;;;5069621;28;20527;-61
2023/06/09 01:04:52;;;;;;;41.33;17.03;;;15.30;94.40;;;;;;5068641;28;20470;-60
2023/06/09 01:07:28;;;;;;;47.87;19.87;;;17.60;95.70;;;;;;5068947;28;20478;-60
2023/06/09 01:10:01;;;;;;;26.57;13.33;;;15.30;94.80;;;;;;5065484;28;20909;-60
2023/06/09 01:12:37;;;;;;;47.50;21.23;;;15.30;94.60;;;;;;5077010;28;20807;-61
2023/06/09 01:15:09;;;;;;;45.53;18.27;;;15.30;94.50;;;;;;5067534;28;20481;-60
2023/06/09 01:17:38;;;;;;;24.77;14.50;;;15.30;94.30;;;;;;5068131;28;20474;-60
2023/06/09 01:20:07;;;;;;;34.87;15.37;;;15.10;93.90;;;;;;5069237;28;20660;-61
2023/06/09 01:22:42;;;;;;;21.17;12.80;;;14.70;94.70;;;;;;5066510;28;20489;-61
2023/06/09 01:25:34;;;;;;;40.33;18.53;;;14.70;94.60;;;;;;5065832;28;20474;-60
2023/06/09 01:28:04;;;;;;;40.87;18.50;;;14.70;94.90;;;;;;5068469;28;20555;-60
2023/06/09 01:30:33;;;;;;;39.00;17.87;;;14.80;94.90;;;;;;5063301;28;20482;-61
2023/06/09 01:33:04;;;;;;;27.87;14.50;;;14.80;94.80;;;;;;5077788;28;21384;-61
2023/06/09 01:35:31;;;;;;;43.70;19.53;;;14.80;95.10;;;;;;5064805;28;20499;-61
2023/06/09 01:37:59;;;;;;;36.77;17.40;;;14.90;95.20;;;;;;5068078;28;20493;-61
2023/06/09 01:40:29;;;;;;;40.57;19.07;;;15.00;95.20;;;;;;5069052;28;20487;-61
2023/06/09 01:43:00;;;;;;;32.83;16.40;;;15.00;95.30;;;;;;5056857;28;20570;-61
2023/06/09 01:45:27;;;;;;;58.77;21.17;;;15.00;95.20;;;;;;5079187;28;20973;-61
2023/06/09 01:47:54;;;;;;;31.27;16.50;;;15.10;95.00;;;;;;5062065;28;20565;-61
2023/06/09 01:50:30;;;;;;;31.80;17.60;;;15.10;95.00;;;;;;5075822;28;20471;-61
2023/06/09 01:53:02;;;;;;;38.70;15.57;;;15.10;95.10;;;;;;5066403;28;20839;-61
2023/06/09 01:55:35;;;;;;;51.60;21.03;;;15.10;95.10;;;;;;5065269;28;20785;-61
2023/06/09 01:58:07;;;;;;;27.83;15.20;;;15.10;94.90;;;;;;5069492;28;20504;-61
2023/06/09 02:00:35;;;;;;;25.80;15.23;;;15.20;95.00;;;;;;5063057;28;20479;-60
2023/06/09 02:03:03;;;;;;;37.27;18.00;;;15.20;94.80;;;;;;5066530;28;20482;-61
2023/06/09 02:05:32;;;;;;;40.07;17.63;;;15.20;94.80;;;;;;5054182;28;20479;-60
2023/06/09 02:08:00;;;;;;;25.90;14.47;;;15.20;94.90;;;;;;5056364;28;20486;-60
2023/06/09 02:10:27;;;;;;;56.70;21.13;;;15.20;95.10;;;;;;5055902;28;20517;-61
2023/06/09 02:12:55;;;;;;;28.97;16.47;;;15.20;95.20;;;;;;5053762;28;20476;-61
2023/06/09 02:15:22;;;;;;;38.70;18.50;;;15.20;95.30;;;;;;5055226;28;20475;-60
2023/06/09 02:17:49;;;;;;;28.03;16.40;;;15.20;95.50;;;;;;5054848;28;20495;-61
2023/06/09 02:20:16;;;;;;;37.87;17.67;;;15.20;95.70;;;;;;5043547;28;20662;-60
2023/06/09 02:22:43;;;;;;;33.37;16.43;;;15.20;95.80;;;;;;5048981;28;20992;-60
2023/06/09 02:25:10;;;;;;;33.97;17.93;;;15.10;95.90;;;;;;5057006;28;20555;-60
2023/06/09 02:27:38;;;;;;;34.03;17.40;;;15.10;96.00;;;;;;5051496;28;20891;-60
2023/06/09 02:30:08;;;;;;;28.10;16.87;;;15.20;95.90;;;;;;5058644;28;20983;-60
2023/06/09 02:32:36;;;;;;;25.80;16.00;;;15.20;95.90;;;;;;5057022;28;21069;-60
2023/06/09 02:35:03;;;;;;;23.67;16.17;;;15.20;95.70;;;;;;5055793;28;20944;-60
2023/06/09 02:37:30;;;;;;;48.00;20.73;;;15.20;95.80;;;;;;5055940;28;21046;-60
2023/06/09 02:39:57;;;;;;;41.97;18.70;;;;;;;;;;5049944;28;21260;-60
2023/06/09 02:42:24;;;;;;;39.67;19.00;;;15.20;95.70;;;;;;5058138;28;20925;-60
2023/06/09 02:44:51;;;;;;;45.10;18.47;;;15.20;95.60;;;;;;5053722;28;20494;-60
2023/06/09 02:47:19;;;;;;;42.87;19.77;;;15.20;95.50;;;;;;5056467;28;20467;-60
2023/06/09 02:49:46;;;;;;;32.73;17.07;;;15.30;95.40;;;;;;5057591;28;20501;-60
2023/06/09 02:52:13;;;;;;;34.97;17.67;;;15.30;95.60;;;;;;5052506;28;20479;-61
2023/06/09 02:54:40;;;;;;;25.97;16.73;;;;;;;;;;5054193;28;21013;-61
2023/06/09 02:57:08;;;;;;;33.97;17.20;;;15.30;95.00;;;;;;5055249;28;20840;-60
2023/06/09 02:59:34;;;;;;;31.53;15.70;;;15.30;94.80;;;;;;5055446;28;21061;-60
2023/06/09 03:02:01;;;;;;;34.33;16.17;;;15.10;94.90;;;;;;5058788;28;20468;-60
2023/06/09 03:04:29;;;;;;;39.50;18.20;;;14.80;95.10;;;;;;5057651;28;20490;-60
2023/06/09 03:06:56;;;;;;;26.67;14.20;;;14.60;95.20;;;;;;5055299;28;20959;-60
2023/06/09 03:09:23;;;;;;;42.20;19.43;;;14.60;95.20;;;;;;5055086;28;20499;-60
2023/06/09 03:11:50;;;;;;;27.27;15.50;;;14.50;95.30;;;;;;5045930;28;20833;-60
2023/06/09 03:14:17;;;;;;;32.77;15.40;;;14.60;95.60;;;;;;5055737;28;20694;-60
2023/06/09 03:16:44;;;;;;;33.27;17.30;;;14.60;95.70;;;;;;5053202;28;20580;-60
2023/06/09 03:19:11;;;;;;;33.63;17.10;;;14.60;95.50;;;;;;5053810;28;20467;-60
2023/06/09 03:21:39;;;;;;;26.13;16.90;;;14.70;95.30;;;;;;5048801;28;20479;-60
2023/06/09 03:24:07;;;;;;;25.00;15.73;;;14.70;95.50;;;;;;5061233;28;20502;-60
2023/06/09 03:26:34;;;;;;;30.43;17.30;;;14.70;95.40;;;;;;5044830;28;20507;-61
2023/06/09 03:29:01;;;;;;;42.40;19.37;;;14.70;95.20;;;;;;5054184;28;20885;-60
2023/06/09 03:31:27;;;;;;;45.07;21.00;;;14.70;95.20;;;;;;5051145;28;20468;-61
2023/06/09 03:33:55;;;;;;;36.67;17.40;;;14.70;95.20;;;;;;5054770;28;20870;-60
2023/06/09 03:36:22;;;;;;;55.30;22.73;;;14.70;95.40;;;;;;5042138;28;21135;-60
2023/06/09 03:38:51;;;;;;;38.50;18.07;;;14.80;95.30;;;;;;5055715;28;20557;-60
2023/06/09 03:41:17;;;;;;;48.37;19.87;;;14.60;95.30;;;;;;5054285;28;20491;-60
2023/06/09 03:43:44;;;;;;;30.23;17.10;;;14.60;95.20;;;;;;5054801;28;20476;-61
2023/06/09 03:46:11;;;;;;;37.77;18.67;;;14.50;95.30;;;;;;5054214;28;20652;-60
2023/06/09 03:48:38;;;;;;;32.70;17.17;;;14.50;95.40;;;;;;5054138;28;20815;-60
2023/06/09 03:51:05;;;;;;;30.90;16.40;;;14.50;95.40;;;;;;5057503;28;20491;-60
2023/06/09 03:53:32;;;;;;;43.80;18.93;;;14.60;95.60;;;;;;5051497;28;20796;-60
2023/06/09 03:56:00;;;;;;;33.97;17.77;;;14.60;95.70;;;;;;5054006;28;20490;-61
2023/06/09 03:58:27;;;;;;;51.30;22.60;;;14.60;95.70;;;;;;5048241;28;21005;-60
2023/06/09 04:00:54;;;;;;;29.90;16.70;;;14.70;95.50;;;;;;5053713;28;20476;-60
2023/06/09 04:03:22;;;;;;;40.03;20.17;;;14.70;95.20;;;;;;5041928;28;20839;-60
2023/06/09 04:05:49;;;;;;;37.10;17.60;;;14.70;95.30;;;;;;5053017;28;20483;-60
2023/06/09 04:08:16;;;;;;;51.47;19.60;;;14.70;95.50;;;;;;5049995;28;20566;-60
2023/06/09 04:10:44;;;;;;;35.57;18.37;;;14.70;95.40;;;;;;5054036;28;20487;-60
2023/06/09 04:13:13;;;;;;;30.50;17.20;;;14.70;95.50;;;;;;5061542;28;20884;-60
2023/06/09 04:15:40;;;;;;;50.40;19.23;;;14.80;95.70;;;;;;5050407;28;20498;-60
2023/06/09 04:18:07;;;;;;;28.13;15.37;;;14.80;95.50;;;;;;5055503;28;20498;-60
2023/06/09 04:20:34;;;;;;;23.53;15.40;;;14.60;95.20;;;;;;5055195;28;21157;-60
2023/06/09 04:23:02;;;;;;;37.90;15.40;;;14.60;95.20;;;;;;5055265;28;20471;-60
2023/06/09 04:25:29;;;;;;;20.90;15.27;;;14.50;95.10;;;;;;5054207;28;20479;-60
2023/06/09 04:27:57;;;;;;;34.03;18.23;;;14.40;95.40;;;;;;5057519;28;25229;-60
2023/06/09 04:30:26;;;;;;;31.70;16.07;;;14.40;95.60;;;;;;5051907;28;20906;-60
2023/06/09 04:32:53;;;;;;;30.20;15.30;;;14.40;95.70;;;;;;5054119;28;20479;-59
2023/06/09 04:35:20;;;;;;;43.23;19.40;;;14.50;96.10;;;;;;5055433;28;20487;-60
2023/06/09 04:37:48;;;;;;;39.63;16.80;;;14.60;96.50;;;;;;5053733;28;20483;-60
2023/06/09 04:40:21;;;;;;;29.53;16.90;;;14.70;96.60;;;;;;5045305;28;20564;-60
2023/06/09 04:42:51;;;;;;;29.67;17.50;;;;;;;;;;5053608;28;20842;-60
2023/06/09 04:45:19;;;;;;;46.90;22.47;;;14.90;97.10;;;;;;5056991;28;20474;-60
2023/06/09 04:47:50;;;;;;;31.70;19.50;;;15.00;97.30;;;;;;5061348;28;20475;-60
2023/06/09 04:50:16;;;;;;;40.90;18.07;;;15.10;97.30;;;;;;5057034;28;20478;-60
2023/06/09 04:52:44;;;;;;;32.93;18.73;;;15.10;97.40;;;;;;5057225;28;20480;-61
2023/06/09 04:55:12;;;;;;;34.47;18.60;;;15.30;97.50;;;;;;5056542;28;20998;-60
2023/06/09 04:57:39;;;;;;;28.43;16.97;;;15.50;97.70;;;;;;5057334;28;20487;-60
2023/06/09 05:00:08;;;;;;;23.67;15.80;;;15.60;97.90;;;;;;5058286;28;20490;-61
2023/06/09 05:02:35;;;;;;;34.83;18.90;;;15.70;98.20;;;;;;5056219;28;20479;-60
2023/06/09 05:05:03;;;;;;;35.60;18.80;;;15.90;98.00;;;;;;5054682;28;21044;-60
2023/06/09 05:07:30;;;;;;;40.70;21.40;;;16.00;98.00;;;;;;5044764;28;21023;-60
2023/06/09 05:09:57;;;;;;;35.33;19.60;;;16.00;98.00;;;;;;5058706;28;20498;-60
2023/06/09 05:12:25;;;;;;;36.83;20.20;;;16.10;98.30;;;;;;5052410;28;20471;-60
2023/06/09 05:14:52;;;;;;;36.03;20.80;;;16.20;98.40;;;;;;5059664;28;20472;-60
2023/06/09 05:17:18;;;;;;;31.77;19.83;;;16.30;98.20;;;;;;5059864;28;20479;-60
2023/06/09 05:19:45;;;;;;;30.20;17.67;;;16.30;98.40;;;;;;5060824;28;20889;-60
2023/06/09 05:22:14;;;;;;;29.80;18.70;;;16.40;98.50;;;;;;5057874;28;20475;-60
2023/06/09 05:24:41;;;;;;;26.40;18.67;;;16.50;98.60;;;;;;5054666;28;21250;-60
2023/06/09 05:27:08;;;;;;;33.30;19.20;;;16.50;98.80;;;;;;5055670;28;20533;-60
2023/06/09 05:29:35;;;;;;;29.30;18.40;;;16.60;98.70;;;;;;5056428;28;20478;-60
2023/06/09 05:32:02;;;;;;;27.37;17.60;;;16.60;99.00;;;;;;5057364;28;20593;-60
2023/06/09 05:34:29;;;;;;;36.00;20.07;;;16.70;98.90;;;;;;5055703;28;20478;-60
2023/06/09 05:36:57;;;;;;;33.23;19.57;;;16.80;99.20;;;;;;5054517;28;20511;-60
2023/06/09 05:39:25;;;;;;;40.17;22.70;;;16.90;99.30;;;;;;5047788;28;20493;-60
2023/06/09 05:41:52;;;;;;;34.00;19.97;;;17.00;99.50;;;;;;5063606;28;20898;-60
2023/06/09 05:44:19;;;;;;;34.93;21.90;;;17.10;99.40;;;;;;5057062;28;20487;-60
2023/06/09 05:46:46;;;;;;;33.30;21.27;;;17.20;99.60;;;;;;5040007;28;20480;-60
2023/06/09 05:49:12;;;;;;;40.73;21.13;;;17.30;99.90;;;;;;5051736;28;20479;-60
2023/06/09 05:51:39;;;;;;;29.10;19.93;;;17.40;99.90;;;;;;5056273;28;21271;-60
2023/06/09 05:54:07;;;;;;;27.40;18.97;;;17.50;99.80;;;;;;5054922;28;20479;-60
2023/06/09 05:56:37;;;;;;;33.80;20.70;;;17.70;99.80;;;;;;5051499;28;20515;-60
2023/06/09 05:59:04;;;;;;;33.10;20.97;;;17.70;99.90;;;;;;5055339;28;20988;-60
2023/06/09 06:01:31;;;;;;;40.03;24.13;;;17.80;99.90;;;;;;5055101;28;20878;-60
2023/06/09 06:03:58;;;;;;;31.90;18.13;;;18.00;99.90;;;;;;5052151;28;20475;-60
2023/06/09 06:06:25;;;;;;;45.77;23.70;;;18.10;99.80;;;;;;5047966;28;20876;-60
2023/06/09 06:08:52;;;;;;;35.03;21.33;;;18.20;99.90;;;;;;5052708;28;20480;-60
2023/06/09 06:11:19;;;;;;;34.23;21.43;;;18.40;99.60;;;;;;5045993;28;20469;-61
2023/06/09 06:13:47;;;;;;;29.73;20.83;;;18.60;99.80;;;;;;5053361;28;20488;-60
2023/06/09 06:16:14;;;;;;;27.47;19.67;;;18.70;99.40;;;;;;5053344;28;20464;-60
2023/06/09 06:18:41;;;;;;;30.00;17.67;;;18.90;99.40;;;;;;5052538;28;20567;-60
2023/06/09 06:21:07;;;;;;;24.80;17.50;;;19.00;99.20;;;;;;5054381;28;20487;-59
2023/06/09 06:23:35;;;;;;;25.23;16.40;;;19.10;99.10;;;;;;5053443;28;20853;-60
2023/06/09 06:26:02;;;;;;;27.63;17.93;;;19.20;98.60;;;;;;5050672;28;20486;-60
2023/06/09 06:28:29;;;;;;;28.97;18.27;;;19.20;98.10;;;;;;5049120;28;20481;-60
2023/06/09 06:30:58;;;;;;;23.13;16.40;;;;;;;;;;5051588;28;20486;-60
2023/06/09 06:33:29;;;;;;;37.60;19.53;;;19.40;98.30;;;;;;5047298;28;20977;-60
2023/06/09 06:35:57;;;;;;;26.70;17.97;;;19.50;97.50;;;;;;5048748;28;20933;-60
2023/06/09 06:38:24;;;;;;;34.70;19.40;;;19.60;97.50;;;;;;5054024;28;20468;-59
2023/06/09 06:40:51;;;;;;;22.70;16.37;;;19.80;97.70;;;;;;5055677;28;20482;-60
2023/06/09 06:43:18;;;;;;;32.57;20.43;;;19.90;97.20;;;;;;5050411;28;20468;-60
2023/06/09 06:45:45;;;;;;;26.27;18.33;;;20.00;96.80;;;;;;5041407;28;20580;-60
2023/06/09 06:48:13;;;;;;;25.53;15.97;;;20.10;96.60;;;;;;5057504;28;20482;-60
2023/06/09 06:50:40;;;;;;;18.57;14.70;;;20.20;96.20;;;;;;5049477;28;20981;-59
2023/06/09 06:53:07;;;;;;;27.90;15.10;;;20.40;95.70;;;;;;5051624;28;20493;-60
2023/06/09 06:55:35;;;;;;;21.87;16.30;;;20.50;96.40;;;;;;5053059;28;20752;-59
2023/06/09 06:58:02;;;;;;;20.93;15.27;;;20.60;96.30;;;;;;5055793;28;21006;-60
2023/06/09 07:00:29;;;;;;;26.97;18.33;;;20.80;95.30;;;;;;5054299;28;20475;-60
2023/06/09 07:02:56;;;;;;;20.40;14.73;;;21.00;95.70;;;;;;5052827;28;20501;-60
2023/06/09 07:05:25;;;;;;;36.73;22.00;;;21.10;96.00;;;;;;5046092;28;20490;-60
2023/06/09 07:07:52;;;;;;;22.50;14.10;;;21.40;95.30;;;;;;5054713;28;20487;-60
2023/06/09 07:10:19;;;;;;;26.57;16.00;;;21.60;95.20;;;;;;5054274;28;20483;-60
2023/06/09 07:12:46;;;;;;;21.60;15.33;;;21.70;94.70;;;;;;5054905;28;20484;-60
2023/06/09 07:15:13;;;;;;;33.03;15.03;;;21.90;93.90;;;;;;5054149;28;20486;-61
2023/06/09 07:17:39;;;;;;;17.17;13.80;;;22.10;93.80;;;;;;5054193;28;20483;-60
2023/06/09 07:20:08;;;;;;;16.07;13.47;;;22.20;93.90;;;;;;5054622;28;20819;-60
2023/06/09 07:22:40;;;;;;;21.37;13.37;;;22.40;93.80;;;;;;5047333;28;20565;-60
2023/06/09 07:25:08;;;;;;;18.30;13.70;;;22.50;93.90;;;;;;5055923;28;20683;-60
2023/06/09 07:27:35;;;;;;;20.63;15.40;;;22.70;93.50;;;;;;5052857;28;20487;-60
2023/06/09 07:30:02;;;;;;;30.93;13.40;;;22.90;92.90;;;;;;5055075;28;20907;-60
2023/06/09 07:32:29;;;;;;;27.97;17.33;;;23.00;93.20;;;;;;5053691;28;20858;-60
2023/06/09 07:34:57;;;;;;;15.60;12.63;;;23.20;92.80;;;;;;5041517;28;21056;-59
2023/06/09 07:37:25;;;;;;;27.13;16.53;;;23.40;92.40;;;;;;5052031;28;20484;-60
2023/06/09 07:39:53;;;;;;;19.93;14.30;;;23.60;92.10;;;;;;5052916;28;20483;-61
2023/06/09 07:42:20;;;;;;;20.03;14.70;;;23.70;92.00;;;;;;5053689;28;21039;-60
2023/06/09 07:44:46;;;;;;;21.73;14.13;;;24.00;92.70;;;;;;5052380;28;20880;-60
2023/06/09 07:47:13;;;;;;;17.40;13.90;;;24.10;91.80;;;;;;5053931;28;20862;-61
2023/06/09 07:49:40;;;;;;;12.97;11.57;;;24.30;91.60;;;;;;5051607;28;20496;-60
2023/06/09 07:52:09;;;;;;;18.47;11.43;;;24.50;91.80;;;;;;5048633;28;20823;-59
2023/06/09 07:54:35;;;;;;;24.50;12.93;;;24.60;90.80;;;;;;5041677;28;20921;-61
2023/06/09 07:57:04;;;;;;;14.70;11.13;;;;;;;;;;5048743;28;20679;-61
2023/06/09 07:59:31;;;;;;;21.60;13.70;;;24.90;90.60;;;;;;5052521;28;20487;-61
2023/06/09 08:01:57;;;;;;;15.30;12.00;;;25.10;89.20;;;;;;5050587;28;20918;-61
2023/06/09 08:04:26;;;;;;;17.37;13.83;;;25.10;87.70;;;;;;5058240;28;20552;-60
2023/06/09 08:06:54;;;;;;;15.93;12.10;;;25.20;88.60;;;;;;5057386;28;20492;-60
2023/06/09 08:09:20;;;;;;;17.07;13.60;;;25.40;89.20;;;;;;5057161;28;20487;-61
2023/06/09 08:11:47;;;;;;;13.63;10.77;;;25.50;88.40;;;;;;5057534;28;20485;-59
2023/06/09 08:14:16;;;;;;;12.63;9.90;;;25.60;87.60;;;;;;5058290;28;21220;-60
2023/06/09 08:16:43;;;;;;;17.00;12.07;;;25.70;87.50;;;;;;5046674;28;20481;-61
2023/06/09 08:19:10;;;;;;;16.43;9.97;;;25.80;84.70;;;;;;5062521;28;20485;-60
2023/06/09 08:21:42;;;;;;;13.20;9.30;;;25.90;82.60;;;;;;5056714;28;20504;-61
2023/06/09 08:24:09;;;;;;;14.83;11.33;;;25.70;81.90;;;;;;5047251;28;20527;-61
2023/06/09 08:26:36;;;;;;;12.77;9.70;;;25.90;86.10;;;;;;5056762;28;20509;-60
2023/06/09 08:29:03;;;;;;;13.10;10.17;;;26.10;83.10;;;;;;5053709;28;20836;-60
2023/06/09 08:31:32;;;;;;;13.70;11.00;;;26.20;83.90;;;;;;5056464;28;20481;-60
2023/06/09 08:33:59;;;;;;;16.97;10.90;;;26.20;83.30;;;;;;5055680;28;20486;-61
2023/06/09 08:36:26;;;;;;;23.10;15.10;;;26.30;83.80;;;;;;5056903;28;20488;-61
2023/06/09 08:38:53;;;;;;;15.30;10.47;;;26.40;83.40;;;;;;5053533;28;20503;-61
2023/06/09 08:41:24;;;;;;;28.53;17.73;;;26.70;83.40;;;;;;5055372;28;20973;-61
2023/06/09 08:43:51;;;;;;;12.17;10.77;;;26.70;81.80;;;;;;5055293;28;20829;-61
2023/06/09 08:46:20;;;;;;;17.00;13.07;;;26.80;80.10;;;;;;5052920;28;21014;-60
2023/06/09 08:48:51;;;;;;;16.57;9.20;;;27.00;79.90;;;;;;5058028;28;20489;-61
2023/06/09 08:51:21;;;;;;;12.73;10.67;;;27.10;81.30;;;;;;5052967;28;20480;-61
2023/06/09 08:53:51;;;;;;;12.30;9.80;;;27.30;80.20;;;;;;5057074;28;20489;-61
2023/06/09 08:56:18;;;;;;;16.70;11.10;;;27.40;79.20;;;;;;5052655;28;20489;-61
2023/06/09 08:58:47;;;;;;;12.53;10.00;;;27.40;79.30;;;;;;5057030;28;21212;-61
2023/06/09 09:01:15;;;;;;;10.20;9.10;;;27.60;82.50;;;;;;5056794;28;20746;-61
2023/06/09 09:03:42;;;;;;;10.97;9.53;;;27.60;78.00;;;;;;5055389;28;20486;-61
2023/06/09 09:06:10;;;;;;;15.00;11.07;;;27.70;78.60;;;;;;5044384;28;20487;-61
2023/06/09 09:08:37;;;;;;;26.73;9.40;;;27.90;80.20;;;;;;5057234;28;20489;-61
2023/06/09 09:11:06;;;;;;;12.17;9.97;;;28.00;80.80;;;;;;5056892;28;20495;-61
2023/06/09 09:13:33;;;;;;;12.73;10.50;;;28.00;80.00;;;;;;5056348;28;20916;-61
2023/06/09 09:16:01;;;;;;;13.77;9.73;;;28.20;79.10;;;;;;5054920;28;20611;-61
2023/06/09 09:18:31;;;;;;;14.10;11.83;;;28.30;77.40;;;;;;5047855;28;20477;-61
2023/06/09 09:20:58;;;;;;;14.47;11.70;;;28.30;78.50;;;;;;5056356;28;20481;-61
2023/06/09 09:23:31;;;;;;;15.60;11.60;;;28.40;79.50;;;;;;5055582;28;20489;-62
2023/06/09 09:25:59;;;;;;;12.70;10.73;;;28.40;78.20;;;;;;5056001;28;20490;-61
2023/06/09 09:28:26;;;;;;;12.30;10.07;;;28.40;74.40;;;;;;5052319;28;20494;-61
2023/06/09 09:30:54;;;;;;;12.93;10.20;;;28.10;72.60;;;;;;5056328;28;20475;-61
2023/06/09 09:33:23;;;;;;;19.53;13.67;;;28.30;75.00;;;;;;5056505;28;20828;-61
2023/06/09 09:35:52;;;;;;;11.67;9.83;;;28.40;76.80;;;;;;5046011;28;20678;-60
2023/06/09 09:38:21;;;;;;;14.27;11.73;;;28.40;76.70;;;;;;5047434;28;20521;-60
2023/06/09 09:40:50;;;;;;;14.73;10.20;;;28.30;72.30;;;;;;5056785;28;20479;-61
2023/06/09 09:43:18;;;;;;;16.00;10.30;;;28.40;73.00;;;;;;5056562;28;20481;-61
2023/06/09 09:45:47;;;;;;;11.67;10.03;;;27.90;71.00;;;;;;5054776;28;20810;-61
2023/06/09 09:48:15;;;;;;;10.97;9.90;;;28.10;75.30;;;;;;5055927;28;20489;-61
2023/06/09 09:50:44;;;;;;;14.33;9.60;;;28.30;76.30;;;;;;5055966;28;21009;-61
2023/06/09 09:53:11;;;;;;;10.83;9.70;;;28.50;76.90;;;;;;5056602;28;20605;-61
2023/06/09 09:55:41;;;;;;;11.00;9.90;;;28.60;74.80;;;;;;5055280;28;20496;-61
2023/06/09 09:58:10;;;;;;;10.80;9.33;;;28.70;74.90;;;;;;5048907;28;20478;-61
2023/06/09 10:00:39;;;;;;;9.50;8.50;;;28.90;74.80;;;;;;5056581;28;20811;-62
2023/06/09 10:03:08;;;;;;;11.30;10.00;;;29.10;76.30;;;;;;5052569;28;20474;-61
2023/06/09 10:05:39;;;;;;;11.17;10.07;;;29.20;75.30;;;;;;5044139;28;20950;-61
2023/06/09 10:08:07;;;;;;;10.10;9.10;;;29.30;73.80;;;;;;5053001;28;20660;-62
2023/06/09 10:10:35;;;;;;;19.30;10.43;;;29.20;71.20;;;;;;5053613;28;20796;-61
2023/06/09 10:13:03;;;;;;;10.50;9.20;;;29.20;72.00;;;;;;5054357;28;20911;-61
2023/06/09 10:15:32;;;;;;;15.17;11.50;;;29.40;73.10;;;;;;5052180;28;20845;-61
2023/06/09 10:18:00;;;;;;;15.30;8.77;;;29.50;73.20;;;;;;5046274;28;20482;-61
2023/06/09 10:20:27;;;;;;;15.23;12.50;;;29.50;68.60;;;;;;5061276;28;20535;-62
2023/06/09 10:22:55;;;;;;;15.10;10.10;;;29.30;66.10;;;;;;5066988;28;20477;-61
2023/06/09 10:25:25;;;;;;;19.50;12.07;;;29.20;67.90;;;;;;5065772;28;21068;-61
2023/06/09 10:27:52;;;;;;;11.47;9.93;;;29.10;68.00;;;;;;5051035;28;20474;-62
2023/06/09 10:30:20;;;;;;;11.50;9.37;;;29.30;68.00;;;;;;5064989;28;20481;-61
2023/06/09 10:32:54;;;;;;;10.47;9.37;;;29.40;69.50;;;;;;5066796;28;20485;-61
2023/06/09 10:35:26;;;;;;;15.30;11.30;;;29.60;67.90;;;;;;5040889;28;20477;-60
2023/06/09 10:37:54;;;;;;;20.03;10.03;;;29.70;68.20;;;;;;5047324;28;21173;-61
2023/06/09 10:40:31;;;;;;;15.53;10.07;;;29.90;68.60;;;;;;5061789;28;20813;-60
2023/06/09 10:43:19;;;;;;;12.60;10.90;;;29.50;63.90;;;;;;5051557;28;20477;-61
2023/06/09 10:45:51;;;;;;;11.33;9.87;;;29.40;65.10;;;;;;5062212;28;21221;-61
2023/06/09 10:48:42;;;;;;;10.23;9.17;;;29.50;69.00;;;;;;5064998;28;20762;-61
2023/06/09 10:51:40;;;;;;;10.40;9.30;;;29.60;66.00;;;;;;5063235;28;20976;-61
2023/06/09 10:54:26;;;;;;;14.27;9.33;;;29.70;66.30;;;;;;5062540;28;21041;-61
2023/06/09 10:56:55;;;;;;;14.97;8.17;;;29.80;66.50;;;;;;5060560;28;21393;-61
2023/06/09 11:00:11;;;;;;;21.13;12.97;;;29.60;63.40;;;;;;5031898;28;20527;-61
2023/06/09 11:02:38;;;;;;;11.47;8.67;;;29.60;66.30;;;;;;5038046;28;20930;-61
2023/06/09 11:05:07;;;;;;;15.40;10.67;;;29.70;65.30;;;;;;5030998;28;20476;-61
2023/06/09 11:07:43;;;;;;;14.47;10.20;;;29.80;65.50;;;;;;5037959;28;20876;-61
2023/06/09 11:10:28;;;;;;;14.20;10.13;;;29.90;66.70;;;;;;5039946;28;20457;-61
2023/06/09 11:12:55;;;;;;;17.97;11.93;;;29.90;66.00;;;;;;5029889;28;20452;-61
2023/06/09 11:15:23;;;;;;;26.47;13.73;;;29.70;62.70;;;;;;5031308;28;20556;-61
2023/06/09 11:17:51;;;;;;;12.37;8.77;;;29.80;62.90;;;;;;5038809;28;22019;-61
2023/06/09 11:20:22;;;;;;;17.97;12.00;;;29.60;62.50;;;;;;5043582;28;20457;-61
2023/06/09 11:22:59;;;;;;;18.13;12.07;;;29.40;62.70;;;;;;5044154;28;20456;-62
2023/06/09 11:25:37;;;;;;;25.10;14.90;;;29.40;62.40;;;;;;5043126;28;20475;-62
2023/06/09 11:28:20;;;;;;;18.77;11.20;;;29.30;62.10;;;;;;5038787;28;20480;-61
2023/06/09 11:31:02;;;;;;;17.50;10.97;;;29.00;62.80;;;;;;5046764;28;20460;-61
2023/06/09 11:33:45;;;;;;;27.43;12.13;;;29.40;67.50;;;;;;5044583;28;20456;-61
2023/06/09 11:36:18;;;;;;;20.10;11.83;;;29.40;64.20;;;;;;5042389;28;20485;-61
2023/06/09 11:38:46;;;;;;;11.00;7.50;;;29.80;65.30;;;;;;5045038;28;20454;-61
2023/06/09 11:41:14;;;;;;;19.27;11.80;;;29.80;62.10;;;;;;5041656;28;20485;-61
2023/06/09 11:43:52;;;;;;;9.70;8.70;;;29.90;62.90;;;;;;5038623;28;20493;-61
2023/06/09 11:46:19;;;;;;;16.73;11.57;;;30.10;67.40;;;;;;5052201;28;21065;-61
2023/06/09 11:49:03;;;;;;;11.83;9.20;;;30.20;64.80;;;;;;5046130;28;20461;-62
2023/06/09 11:51:59;;;;;;;13.03;8.10;;;30.30;62.90;;;;;;5032512;28;20957;-61
2023/06/09 11:54:46;;;;;;;10.90;9.70;;;30.50;64.00;;;;;;5039273;28;20553;-62
2023/06/09 11:57:15;;;;;;;15.97;11.10;;;29.30;58.70;;;;;;5057558;28;20482;-62
2023/06/09 11:59:42;;;;;;;54.57;9.80;;;30.00;65.00;;;;;;5063510;28;20462;-62
2023/06/09 12:02:11;;;;;;;15.70;10.83;;;30.00;60.70;;;;;;5063635;28;21103;-62
2023/06/09 12:04:41;;;;;;;16.30;10.30;;;30.00;64.30;;;;;;5061627;28;20798;-62
2023/06/09 12:07:13;;;;;;;18.47;9.60;;;30.10;63.70;;;;;;5053193;28;20799;-62
2023/06/09 12:09:42;;;;;;;7.90;7.07;;;30.40;65.90;;;;;;5058007;28;20917;-63
2023/06/09 12:12:10;;;;;;;13.10;8.50;;;30.50;65.70;;;;;;5061955;28;20526;-62
2023/06/09 12:14:38;;;;;;;7.17;6.57;;;30.60;63.60;;;;;;5046584;28;20993;-62
2023/06/09 12:17:05;;;;;;;8.73;7.83;;;30.80;64.20;;;;;;5062162;28;20952;-61
2023/06/09 12:19:33;;;;;;;11.03;8.43;;;30.80;64.00;;;;;;5060665;28;20538;-62
2023/06/09 12:22:02;;;;;;;6.17;5.60;;;30.90;68.30;;;;;;5065310;28;20833;-61
2023/06/09 12:24:32;;;;;;;6.47;5.97;;;31.00;66.40;;;;;;5060942;28;20465;-62
2023/06/09 12:27:10;;;;;;;8.03;7.33;;;30.90;66.00;;;;;;5038135;28;20582;-62
2023/06/09 12:29:37;;;;;;;10.47;7.47;;;31.00;65.70;;;;;;5028464;28;20465;-63
2023/06/09 12:32:06;;;;;;;7.23;6.53;;;31.10;62.80;;;;;;5033559;28;20812;-62
2023/06/09 12:34:33;;;;;;;14.80;6.63;;;31.30;63.50;;;;;;5020599;28;20478;-62
2023/06/09 12:37:02;;;;;;;6.47;5.97;;;31.50;65.10;;;;;;5045060;28;20487;-63
2023/06/09 12:39:32;;;;;;;7.97;7.17;;;31.70;63.40;;;;;;5040079;28;21534;-63